EPKT/KTW METAR and TAF weather

Enter ICAO airport designator
Station Type Date Time Source
EPKT METAR 2022/07/01 00:30 UTC NOAA

EPKT 010030Z 03002KT 9999 MIFG NSC 18/17 Q1012


Station Type Date Time Source
EPKT Decoded METAR 2022/07/01 00:30 UTC NOAA

Katowice, Poland (EPKT) 50-14N 019-02E 284M
Jun 30, 2022 - 08:30 PM EDT / 2022.07.01 0030 UTC
Wind: from the NNE (030 degrees) at 2 MPH (2 KT):0
Visibility: greater than 7 mile(s):0
Weather: shallow fog
Temperature: 64 F (18 C)
Dew Point: 62 F (17 C)
Relative Humidity: 93%
Pressure (altimeter): 29.88 in. Hg (1012 hPa)
ob: EPKT 010030Z 03002KT 9999 MIFG NSC 18/17 Q1012
cycle: 0

Station Type Date Time Source
EPKT TAF 2022/06/30 18:34 UTC NOAA

TAF EPKT 301730Z 3018/0118 03006KT CAVOK
TEMPO 3018/3021 VRB15G30KT 3000 TSRA BKN030CB
BECMG 0108/0110 20010KT PROB40
TEMPO 0112/0118 VRB20G30KT 3000 TSRA BKN020CB

Example: see airport list